createdAt,value
2019-02-20T00:00:14.683Z,96.7
2019-02-20T00:01:14.751Z,96.7
2019-02-20T00:02:15.034Z,96.7
2019-02-20T00:03:15.301Z,96.5
2019-02-20T00:04:14.568Z,96.5
2019-02-20T00:05:14.832Z,96.4
2019-02-20T00:06:15.102Z,96.5
2019-02-20T00:07:15.387Z,96.5
2019-02-20T00:08:14.650Z,96.5
2019-02-20T00:09:14.938Z,96.5
2019-02-20T00:10:15.201Z,96.5
2019-02-20T00:11:15.249Z,96.5
2019-02-20T00:12:14.516Z,96.5
2019-02-20T00:13:15.101Z,96.6
2019-02-20T00:14:15.366Z,96.6
2019-02-20T00:15:14.632Z,96.6
2019-02-20T00:16:14.893Z,96.8
2019-02-20T00:17:15.160Z,96.7
2019-02-20T00:18:14.429Z,96.6
2019-02-20T00:19:14.695Z,96.6
2019-02-20T00:20:14.962Z,96.6
2019-02-20T00:21:15.013Z,96.6
2019-02-20T00:22:15.289Z,96.6
2019-02-20T00:23:14.557Z,96.5
2019-02-20T00:24:14.824Z,96.6
2019-02-20T00:25:15.094Z,96.5
2019-02-20T00:26:15.350Z,96.5
2019-02-20T00:27:14.629Z,96.5
2019-02-20T00:28:14.901Z,96.5
2019-02-20T00:29:15.179Z,96.6
2019-02-20T00:30:14.469Z,96.6
2019-02-20T00:31:14.500Z,96.6
2019-02-20T00:32:14.778Z,96.6
2019-02-20T00:33:15.050Z,96.5
2019-02-20T00:34:15.326Z,96.6
2019-02-20T00:35:14.586Z,96.6
2019-02-20T00:36:14.854Z,96.6
2019-02-20T00:37:15.122Z,96.7
2019-02-20T00:38:14.419Z,96.7
2019-02-20T00:39:14.705Z,96.7
2019-02-20T00:40:14.978Z,96.8
2019-02-20T00:41:15.021Z,96.8
2019-02-20T00:42:15.284Z,96.7
2019-02-20T00:43:14.552Z,96.7
2019-02-20T00:44:14.813Z,96.7
2019-02-20T00:45:15.086Z,96.8
2019-02-20T00:46:15.360Z,96.8
2019-02-20T00:47:14.624Z,96.8
2019-02-20T00:48:14.891Z,96.8
2019-02-20T00:49:15.166Z,96.9
2019-02-20T00:50:14.438Z,97.0
2019-02-20T00:51:14.496Z,97.0
2019-02-20T00:52:14.762Z,97.0
2019-02-20T00:53:15.031Z,96.8
2019-02-20T00:54:15.302Z,96.9
2019-02-20T00:55:14.596Z,96.9
2019-02-20T00:56:14.871Z,96.9
2019-02-20T00:57:15.139Z,96.9
2019-02-20T00:58:14.450Z,96.9
2019-02-20T00:59:17.036Z,96.9
2019-02-20T01:00:15.339Z,97.0
2019-02-20T01:01:15.374Z,97.0
2019-02-20T01:02:14.645Z,97.0
2019-02-20T01:03:14.914Z,97.0
2019-02-20T01:04:15.182Z,97.0
2019-02-20T01:05:14.453Z,97.1
2019-02-20T01:06:14.717Z,97.2
2019-02-20T01:07:14.989Z,97.2
2019-02-20T01:08:15.262Z,97.2
2019-02-20T01:09:14.529Z,97.3
2019-02-20T01:10:14.832Z,97.0
2019-02-20T01:11:14.839Z,97.0
2019-02-20T01:12:15.100Z,97.0
2019-02-20T01:13:15.363Z,97.0
2019-02-20T01:14:14.629Z,97.0
2019-02-20T01:15:14.929Z,97.0
2019-02-20T01:16:15.203Z,97.0
2019-02-20T01:17:14.524Z,97.0
2019-02-20T01:18:14.818Z,97.0
2019-02-20T01:19:15.104Z,97.0
2019-02-20T01:20:15.397Z,96.9
2019-02-20T01:21:14.404Z,96.8
2019-02-20T01:22:14.677Z,96.8
2019-02-20T01:23:14.937Z,96.8
2019-02-20T01:24:15.221Z,96.9
2019-02-20T01:25:14.499Z,97.1
2019-02-20T01:26:14.759Z,97.2
2019-02-20T01:27:15.035Z,97.4
2019-02-20T01:28:15.298Z,97.5
2019-02-20T01:29:14.575Z,97.5
2019-02-20T01:30:14.873Z,97.5
2019-02-20T01:31:14.883Z,97.5
2019-02-20T01:32:15.150Z,97.5
2019-02-20T01:33:16.673Z,97.2
2019-02-20T01:34:14.939Z,97.3
2019-02-20T01:35:15.215Z,97.4
2019-02-20T01:36:14.476Z,97.5
2019-02-20T01:37:14.736Z,97.5
2019-02-20T01:38:15.011Z,97.6
2019-02-20T01:39:15.276Z,97.6
2019-02-20T01:40:14.548Z,97.8
2019-02-20T01:41:14.607Z,97.7
2019-02-20T01:42:14.865Z,97.5
2019-02-20T01:43:15.152Z,97.2
2019-02-20T01:44:14.421Z,97.0
2019-02-20T01:45:15.015Z,96.9
2019-02-20T01:46:15.282Z,96.8
2019-02-20T01:47:14.543Z,96.8
2019-02-20T01:48:14.828Z,96.8
2019-02-20T01:49:15.104Z,96.8
2019-02-20T01:50:15.386Z,96.8
2019-02-20T01:51:14.984Z,96.8
2019-02-20T01:52:15.257Z,96.7
2019-02-20T01:53:14.524Z,96.7
2019-02-20T01:54:14.789Z,96.3
2019-02-20T01:55:15.090Z,96.3
2019-02-20T01:56:15.358Z,96.3
2019-02-20T01:57:14.623Z,96.5
2019-02-20T01:58:14.900Z,96.5
2019-02-20T01:59:15.160Z,96.5
2019-02-20T02:00:14.449Z,96.6
2019-02-20T02:01:14.495Z,96.8
2019-02-20T02:02:14.769Z,97.0
2019-02-20T02:03:15.036Z,97.0
2019-02-20T02:04:15.297Z,97.1
2019-02-20T02:05:16.003Z,97.2
2019-02-20T02:06:15.327Z,97.2
2019-02-20T02:07:14.590Z,97.0
2019-02-20T02:08:14.858Z,97.2
2019-02-20T02:09:15.128Z,97.3
2019-02-20T02:10:14.413Z,97.0
2019-02-20T02:11:14.445Z,97.0
2019-02-20T02:12:14.704Z,96.8
2019-02-20T02:13:14.971Z,96.8
2019-02-20T02:14:15.229Z,96.8
2019-02-20T02:15:20.895Z,96.9
2019-02-20T02:16:15.181Z,97.0
2019-02-20T02:17:14.437Z,97.0
2019-02-20T02:18:14.707Z,97.2
2019-02-20T02:19:14.975Z,97.2
2019-02-20T02:20:15.250Z,97.2
2019-02-20T02:21:15.310Z,97.3
2019-02-20T02:22:14.581Z,97.3
2019-02-20T02:23:20.193Z,97.3
2019-02-20T02:24:14.492Z,97.0
2019-02-20T02:25:14.765Z,96.8
2019-02-20T02:26:15.032Z,96.8
2019-02-20T02:27:15.312Z,96.8
2019-02-20T02:28:14.576Z,96.7
2019-02-20T02:29:14.840Z,96.7
2019-02-20T02:30:15.140Z,96.7
2019-02-20T02:31:15.177Z,96.7
2019-02-20T02:32:14.478Z,96.7
2019-02-20T02:33:14.758Z,96.7
2019-02-20T02:34:15.019Z,96.7
2019-02-20T02:35:15.340Z,96.7
2019-02-20T02:36:14.617Z,96.8
2019-02-20T02:37:14.887Z,96.8
2019-02-20T02:38:15.155Z,96.8
2019-02-20T02:39:14.416Z,96.9
2019-02-20T02:40:14.696Z,97.0
2019-02-20T02:41:14.724Z,97.0
2019-02-20T02:42:14.992Z,97.2
2019-02-20T02:43:15.265Z,97.3
2019-02-20T02:44:14.541Z,97.4
2019-02-20T02:45:14.832Z,97.5
2019-02-20T02:46:15.109Z,97.5
2019-02-20T02:47:15.392Z,97.7
2019-02-20T02:48:14.665Z,97.7
2019-02-20T02:49:14.931Z,97.7
2019-02-20T02:50:15.232Z,97.8
2019-02-20T02:51:15.224Z,97.8
2019-02-20T02:52:14.493Z,97.8
2019-02-20T02:53:14.781Z,97.8
2019-02-20T02:54:15.047Z,97.8
2019-02-20T02:55:15.321Z,97.8
2019-02-20T02:56:14.581Z,97.8
2019-02-20T02:57:14.868Z,97.9
2019-02-20T02:58:15.145Z,98.0
2019-02-20T02:59:14.414Z,98.0
2019-02-20T03:00:14.692Z,98.0
2019-02-20T03:01:14.754Z,98.0
2019-02-20T03:02:15.021Z,98.0
2019-02-20T03:03:15.301Z,98.0
2019-02-20T03:04:14.584Z,98.0
2019-02-20T03:05:15.256Z,97.8
2019-02-20T03:06:14.529Z,97.7
2019-02-20T03:07:14.794Z,97.7
2019-02-20T03:08:15.067Z,97.5
2019-02-20T03:09:15.335Z,97.3
2019-02-20T03:10:14.612Z,97.2
2019-02-20T03:11:14.680Z,97.2
2019-02-20T03:12:14.959Z,97.2
2019-02-20T03:13:15.224Z,97.2
2019-02-20T03:14:14.508Z,97.0
2019-02-20T03:15:14.780Z,97.0
2019-02-20T03:16:15.043Z,97.0
2019-02-20T03:17:15.310Z,97.0
2019-02-20T03:18:14.550Z,97.0
2019-02-20T03:19:14.830Z,97.0
2019-02-20T03:20:15.099Z,97.0
2019-02-20T03:21:15.143Z,97.1
2019-02-20T03:22:14.385Z,97.0
2019-02-20T03:23:14.658Z,96.9
2019-02-20T03:24:14.929Z,96.9
2019-02-20T03:25:15.219Z,96.7
2019-02-20T03:26:14.497Z,96.5
2019-02-20T03:27:14.755Z,96.5
2019-02-20T03:28:15.044Z,96.3
2019-02-20T03:29:15.314Z,96.2
2019-02-20T03:30:14.617Z,96.2
2019-02-20T03:31:14.663Z,96.2
2019-02-20T03:32:14.956Z,96.2
2019-02-20T03:33:15.250Z,96.3
2019-02-20T03:34:14.526Z,96.5
2019-02-20T03:35:14.790Z,96.8
2019-02-20T03:36:15.065Z,96.9
2019-02-20T03:37:15.347Z,97.0
2019-02-20T03:38:14.626Z,97.0
2019-02-20T03:39:14.897Z,97.2
2019-02-20T03:40:15.193Z,97.2
2019-02-20T03:41:15.209Z,97.2
2019-02-20T03:42:14.478Z,97.2
2019-02-20T03:43:14.744Z,97.3
2019-02-20T03:44:15.014Z,97.3
2019-02-20T03:45:15.304Z,97.3
2019-02-20T03:46:14.567Z,97.3
2019-02-20T03:47:14.834Z,97.3
2019-02-20T03:48:15.101Z,97.4
2019-02-20T03:49:15.420Z,97.4
2019-02-20T03:50:14.691Z,97.3
2019-02-20T03:51:14.769Z,97.2
2019-02-20T03:52:15.030Z,97.2
2019-02-20T03:53:15.291Z,97.2
2019-02-20T03:54:14.555Z,97.2
2019-02-20T03:55:14.795Z,97.2
2019-02-20T03:56:15.060Z,97.1
2019-02-20T03:57:15.303Z,97.1
2019-02-20T03:58:14.565Z,97.0
2019-02-20T03:59:14.839Z,97.0
2019-02-20T04:00:15.113Z,97.0
2019-02-20T04:01:15.152Z,97.0
2019-02-20T04:02:14.669Z,97.0
2019-02-20T04:03:14.937Z,97.1
2019-02-20T04:04:15.213Z,97.1
2019-02-20T04:05:14.471Z,97.2
2019-02-20T04:06:15.028Z,97.3
2019-02-20T04:07:15.290Z,97.3
2019-02-20T04:08:14.560Z,97.2
2019-02-20T04:09:14.881Z,97.0
2019-02-20T04:10:15.195Z,96.8
2019-02-20T04:11:15.221Z,96.7
2019-02-20T04:12:14.458Z,96.7
2019-02-20T04:13:14.727Z,96.7
2019-02-20T04:14:14.996Z,96.8
2019-02-20T04:15:15.258Z,96.8
2019-02-20T04:16:14.539Z,97.0
2019-02-20T04:17:14.808Z,97.0
2019-02-20T04:18:15.072Z,97.0
2019-02-20T04:19:15.335Z,97.0
2019-02-20T04:20:14.675Z,97.0
2019-02-20T04:21:14.646Z,97.0
2019-02-20T04:22:14.909Z,97.0
2019-02-20T04:23:15.164Z,97.0
2019-02-20T04:24:14.433Z,97.0
2019-02-20T04:25:14.726Z,97.0
2019-02-20T04:26:14.980Z,97.1
2019-02-20T04:27:15.248Z,97.2
2019-02-20T04:28:14.493Z,97.1
2019-02-20T04:29:14.755Z,97.0
2019-02-20T04:30:15.041Z,96.9
2019-02-20T04:31:15.077Z,96.8
2019-02-20T04:32:15.319Z,96.7
2019-02-20T04:33:14.592Z,96.7
2019-02-20T04:34:14.869Z,96.5
2019-02-20T04:35:15.151Z,96.5
2019-02-20T04:36:14.427Z,96.6
2019-02-20T04:37:14.697Z,96.7
2019-02-20T04:38:14.961Z,96.7
2019-02-20T04:39:15.223Z,96.7
2019-02-20T04:40:14.587Z,96.8
2019-02-20T04:41:14.618Z,96.8
2019-02-20T04:42:15.011Z,96.9
2019-02-20T04:43:15.280Z,97.0
2019-02-20T04:44:14.555Z,97.1
2019-02-20T04:45:14.832Z,97.1
2019-02-20T04:46:15.075Z,97.1
2019-02-20T04:47:15.336Z,97.1
2019-02-20T04:48:14.612Z,97.1
2019-02-20T04:49:14.868Z,97.1
2019-02-20T04:50:15.143Z,97.1
2019-02-20T04:51:15.201Z,97.1
2019-02-20T04:52:14.465Z,97.1
2019-02-20T04:53:14.716Z,97.2
2019-02-20T04:54:14.965Z,97.2
2019-02-20T04:55:15.249Z,97.2
2019-02-20T04:56:14.525Z,97.2
2019-02-20T04:57:15.072Z,97.2
2019-02-20T04:58:15.333Z,97.2
2019-02-20T04:59:14.619Z,97.0
2019-02-20T05:00:14.924Z,96.8
2019-02-20T05:01:14.951Z,96.7
2019-02-20T05:02:15.224Z,96.5
2019-02-20T05:03:14.483Z,96.5
2019-02-20T05:04:14.762Z,96.5
2019-02-20T05:05:15.028Z,96.5
2019-02-20T05:06:15.292Z,96.5
2019-02-20T05:07:14.573Z,96.4
2019-02-20T05:08:14.857Z,96.4
2019-02-20T05:09:15.116Z,96.5
2019-02-20T05:10:14.416Z,96.5
2019-02-20T05:11:14.410Z,96.5
2019-02-20T05:12:14.693Z,96.5
2019-02-20T05:13:14.937Z,96.5
2019-02-20T05:14:15.217Z,96.3
2019-02-20T05:15:14.508Z,96.2
2019-02-20T05:16:14.771Z,96.0
2019-02-20T05:17:15.033Z,96.0
2019-02-20T05:18:15.300Z,96.0
2019-02-20T05:19:14.575Z,96.0
2019-02-20T05:20:14.828Z,96.0
2019-02-20T05:21:14.916Z,96.0
2019-02-20T05:22:15.191Z,96.0
2019-02-20T05:23:14.470Z,96.1
2019-02-20T05:24:25.261Z,96.2
2019-02-20T05:25:14.624Z,96.3
2019-02-20T05:26:14.886Z,96.3
2019-02-20T05:27:15.158Z,96.4
2019-02-20T05:28:14.438Z,96.5
2019-02-20T05:29:14.707Z,96.5
2019-02-20T05:30:15.248Z,96.7
2019-02-20T05:31:16.778Z,96.9
2019-02-20T05:32:15.054Z,97.0
2019-02-20T05:33:15.326Z,96.8
2019-02-20T05:34:14.602Z,96.8
2019-02-20T05:35:14.921Z,96.8
2019-02-20T05:36:15.204Z,96.7
2019-02-20T05:37:14.480Z,96.7
2019-02-20T05:38:14.761Z,96.8
2019-02-20T05:39:15.020Z,96.9
2019-02-20T05:40:15.302Z,96.8
2019-02-20T05:41:15.342Z,96.8
2019-02-20T05:42:14.618Z,96.8
2019-02-20T05:43:14.910Z,96.6
2019-02-20T05:44:15.191Z,96.5
2019-02-20T05:45:14.533Z,96.5
2019-02-20T05:46:14.815Z,96.5
2019-02-20T05:47:15.088Z,96.5
2019-02-20T05:48:15.357Z,96.5
2019-02-20T05:49:14.622Z,96.5
2019-02-20T05:50:14.895Z,96.5
2019-02-20T05:51:14.948Z,96.5
2019-02-20T05:52:15.187Z,96.4
2019-02-20T05:53:14.501Z,96.4
2019-02-20T05:54:14.771Z,96.3
2019-02-20T05:55:15.047Z,96.3
2019-02-20T05:56:15.309Z,96.3
2019-02-20T05:57:14.573Z,96.3
2019-02-20T05:58:14.858Z,96.4
2019-02-20T05:59:15.110Z,96.5
2019-02-20T06:00:15.375Z,96.5
2019-02-20T06:01:14.434Z,96.5
2019-02-20T06:02:14.700Z,96.5
2019-02-20T06:03:14.963Z,96.4
2019-02-20T06:04:15.234Z,96.3
2019-02-20T06:05:14.514Z,96.4
2019-02-20T06:06:14.796Z,96.5
2019-02-20T06:07:15.069Z,96.5
2019-02-20T06:08:15.330Z,96.5
2019-02-20T06:09:14.608Z,96.5
2019-02-20T06:10:14.896Z,96.5
2019-02-20T06:11:15.740Z,96.4
2019-02-20T06:12:15.017Z,96.5
2019-02-20T06:13:15.280Z,96.5
2019-02-20T06:14:14.553Z,96.5
2019-02-20T06:15:14.822Z,96.6
2019-02-20T06:16:15.093Z,96.7
2019-02-20T06:17:15.377Z,96.8
2019-02-20T06:18:14.637Z,96.8
2019-02-20T06:19:14.894Z,96.8
2019-02-20T06:20:15.177Z,97.0
2019-02-20T06:21:16.633Z,96.9
2019-02-20T06:22:14.907Z,97.0
2019-02-20T06:23:15.199Z,97.0
2019-02-20T06:24:14.463Z,97.0
2019-02-20T06:25:14.818Z,97.0
2019-02-20T06:26:15.091Z,97.0
2019-02-20T06:27:15.378Z,96.8
2019-02-20T06:28:14.645Z,96.7
2019-02-20T06:29:14.902Z,96.8
2019-02-20T06:30:15.195Z,96.8
2019-02-20T06:31:15.207Z,96.9
2019-02-20T06:32:14.467Z,97.0
2019-02-20T06:33:14.756Z,97.1
2019-02-20T06:34:15.024Z,97.1
2019-02-20T06:35:15.316Z,97.1
2019-02-20T06:36:14.600Z,97.1
2019-02-20T06:37:14.871Z,97.0
2019-02-20T06:38:15.140Z,97.1
2019-02-20T06:39:14.413Z,97.2
2019-02-20T06:40:14.692Z,97.2
2019-02-20T06:41:14.768Z,97.2
2019-02-20T06:42:15.106Z,97.1
2019-02-20T06:43:14.383Z,97.0
2019-02-20T06:44:14.644Z,97.0
2019-02-20T06:45:14.910Z,96.9
2019-02-20T06:46:15.179Z,96.8
2019-02-20T06:47:14.490Z,96.7
2019-02-20T06:48:14.768Z,96.7
2019-02-20T06:49:15.062Z,96.5
2019-02-20T06:50:15.335Z,96.5
2019-02-20T06:51:14.436Z,96.5
2019-02-20T06:52:14.727Z,96.5
2019-02-20T06:53:14.991Z,96.5
2019-02-20T06:54:15.261Z,96.5
2019-02-20T06:55:14.535Z,96.5
2019-02-20T06:56:14.799Z,96.5
2019-02-20T06:57:15.185Z,96.5
2019-02-20T06:58:14.461Z,96.5
2019-02-20T06:59:14.732Z,96.4
2019-02-20T07:00:15.038Z,96.4
2019-02-20T07:01:15.053Z,96.5
2019-02-20T07:02:15.321Z,96.4
2019-02-20T07:03:14.623Z,96.4
2019-02-20T07:04:14.912Z,96.4
2019-02-20T07:05:15.182Z,96.2
2019-02-20T07:06:14.443Z,96.2
2019-02-20T07:07:14.699Z,96.2
2019-02-20T07:08:14.959Z,96.3
2019-02-20T07:09:15.402Z,96.2
2019-02-20T07:10:14.719Z,96.0
2019-02-20T07:11:14.714Z,96.0
2019-02-20T07:12:15.140Z,96.0
2019-02-20T07:13:14.404Z,96.0
2019-02-20T07:14:14.671Z,95.9
2019-02-20T07:15:14.940Z,95.8
2019-02-20T07:16:15.216Z,95.8
2019-02-20T07:17:14.481Z,95.8
2019-02-20T07:18:14.755Z,95.9
2019-02-20T07:19:15.016Z,95.9
2019-02-20T07:20:15.279Z,96.0
2019-02-20T07:21:15.343Z,96.2
2019-02-20T07:22:14.614Z,96.2
2019-02-20T07:23:14.896Z,96.1
2019-02-20T07:24:15.161Z,96.2
2019-02-20T07:25:14.458Z,96.2
2019-02-20T07:26:14.735Z,96.1
2019-02-20T07:27:14.993Z,96.1
2019-02-20T07:28:15.275Z,96.1
2019-02-20T07:29:14.539Z,95.9
2019-02-20T07:30:14.819Z,95.9
2019-02-20T07:31:14.874Z,95.9
2019-02-20T07:32:15.141Z,95.7
2019-02-20T07:33:14.405Z,95.5
2019-02-20T07:34:14.686Z,95.3
2019-02-20T07:35:14.973Z,95.2
2019-02-20T07:36:15.241Z,95.2
2019-02-20T07:37:14.505Z,95.0
2019-02-20T07:38:14.788Z,94.8
2019-02-20T07:39:15.051Z,94.6
2019-02-20T07:40:15.327Z,94.6
2019-02-20T07:41:15.356Z,94.7
2019-02-20T07:42:14.612Z,94.7
2019-02-20T07:43:14.884Z,94.8
2019-02-20T07:44:15.148Z,94.8
2019-02-20T07:45:14.418Z,94.6
2019-02-20T07:46:14.677Z,94.5
2019-02-20T07:47:14.938Z,94.4
2019-02-20T07:48:15.195Z,94.2
2019-02-20T07:49:14.461Z,94.2
2019-02-20T07:50:14.725Z,94.2
2019-02-20T07:51:15.025Z,94.2
2019-02-20T07:52:15.316Z,94.2
2019-02-20T07:53:14.589Z,94.2
2019-02-20T07:54:14.854Z,94.2
2019-02-20T07:55:15.127Z,94.3
2019-02-20T07:56:14.387Z,94.3
2019-02-20T07:57:14.663Z,94.4
2019-02-20T07:58:14.936Z,94.3
2019-02-20T07:59:15.200Z,94.7
2019-02-20T08:00:14.526Z,94.7
2019-02-20T08:01:14.543Z,94.8
2019-02-20T08:02:14.820Z,95.0
2019-02-20T08:03:15.089Z,95.4
2019-02-20T08:04:15.369Z,95.4
2019-02-20T08:05:14.645Z,95.3
2019-02-20T08:06:14.928Z,95.2
2019-02-20T08:07:15.208Z,95.2
2019-02-20T08:08:14.472Z,95.2
2019-02-20T08:09:14.742Z,95.7
2019-02-20T08:10:15.012Z,95.7
2019-02-20T08:11:15.071Z,95.5
2019-02-20T08:12:15.349Z,95.2
2019-02-20T08:13:14.631Z,95.5
2019-02-20T08:14:14.894Z,95.4
2019-02-20T08:15:15.167Z,95.7
2019-02-20T08:16:14.430Z,96.0
2019-02-20T08:17:14.688Z,96.0
2019-02-20T08:18:14.958Z,96.0
2019-02-20T08:19:15.234Z,95.8
2019-02-20T08:20:14.504Z,95.8
2019-02-20T08:21:14.558Z,95.7
2019-02-20T08:22:14.833Z,95.7
2019-02-20T08:23:15.119Z,95.9
2019-02-20T08:24:14.398Z,95.8
2019-02-20T08:25:23.298Z,95.9
2019-02-20T08:26:14.603Z,96.3
2019-02-20T08:27:14.882Z,96.3
2019-02-20T08:28:15.212Z,96.5
2019-02-20T08:29:14.477Z,96.6
2019-02-20T08:30:14.755Z,96.6
2019-02-20T08:31:14.822Z,96.5
2019-02-20T08:32:15.108Z,96.3
2019-02-20T08:33:14.375Z,96.3
2019-02-20T08:34:14.636Z,96.3
2019-02-20T08:35:14.930Z,96.4
2019-02-20T08:36:15.198Z,96.3
2019-02-20T08:37:14.466Z,96.3
2019-02-20T08:38:14.729Z,96.1
2019-02-20T08:39:15.000Z,95.8
2019-02-20T08:40:15.289Z,95.8
2019-02-20T08:41:15.354Z,95.9
2019-02-20T08:42:14.624Z,95.8
2019-02-20T08:43:14.890Z,95.5
2019-02-20T08:44:15.152Z,95.5
2019-02-20T08:45:14.421Z,95.7
2019-02-20T08:46:14.691Z,95.5
2019-02-20T08:47:14.966Z,95.5
2019-02-20T08:48:15.232Z,95.2
2019-02-20T08:49:14.512Z,95.1
2019-02-20T08:50:16.994Z,95.2
2019-02-20T08:51:14.846Z,95.1
2019-02-20T08:52:15.118Z,95.0
2019-02-20T08:53:14.429Z,94.7
2019-02-20T08:54:14.722Z,94.5
2019-02-20T08:55:15.005Z,94.3
2019-02-20T08:56:15.267Z,94.1
2019-02-20T08:57:14.527Z,94.0
2019-02-20T08:58:14.786Z,94.2
2019-02-20T08:59:15.057Z,94.5
2019-02-20T09:00:15.341Z,94.1
2019-02-20T09:01:15.370Z,94.0
2019-02-20T09:02:14.628Z,94.0
2019-02-20T09:03:14.898Z,94.0
2019-02-20T09:04:15.160Z,93.8
2019-02-20T09:05:14.442Z,93.3
2019-02-20T09:06:14.720Z,93.0
2019-02-20T09:07:14.989Z,92.9
2019-02-20T09:08:15.253Z,92.7
2019-02-20T09:09:14.521Z,92.7
2019-02-20T09:10:17.576Z,92.3
2019-02-20T09:11:14.852Z,92.1
2019-02-20T09:12:15.115Z,91.9
2019-02-20T09:13:14.397Z,92.4
2019-02-20T09:14:14.671Z,92.5
2019-02-20T09:15:14.970Z,92.4
2019-02-20T09:16:15.252Z,92.2
2019-02-20T09:17:14.518Z,92.0
2019-02-20T09:18:14.775Z,91.8
2019-02-20T09:19:15.049Z,91.0
2019-02-20T09:20:15.327Z,90.8
2019-02-20T09:21:14.388Z,90.8
2019-02-20T09:22:14.655Z,90.5
2019-02-20T09:23:14.927Z,90.3
2019-02-20T09:24:15.206Z,90.1
2019-02-20T09:25:20.274Z,89.8
2019-02-20T09:26:14.566Z,89.8
2019-02-20T09:27:14.840Z,89.6
2019-02-20T09:28:15.105Z,89.5
2019-02-20T09:29:15.383Z,89.4
2019-02-20T09:30:14.682Z,89.2
2019-02-20T09:31:14.716Z,88.9
2019-02-20T09:32:14.980Z,88.7
2019-02-20T09:33:15.232Z,88.5
2019-02-20T09:34:14.495Z,88.3
2019-02-20T09:35:14.773Z,88.2
2019-02-20T09:36:15.047Z,87.8
2019-02-20T09:37:15.317Z,87.8
2019-02-20T09:38:14.585Z,87.7
2019-02-20T09:39:14.847Z,87.6
2019-02-20T09:40:15.137Z,87.6
2019-02-20T09:41:15.163Z,88.0
2019-02-20T09:42:14.428Z,88.2
2019-02-20T09:43:15.074Z,87.4
2019-02-20T09:44:15.333Z,87.5
2019-02-20T09:45:14.610Z,87.2
2019-02-20T09:46:14.873Z,87.4
2019-02-20T09:47:15.130Z,87.3
2019-02-20T09:48:14.398Z,87.9
2019-02-20T09:49:14.669Z,88.6
2019-02-20T09:50:14.959Z,88.3
2019-02-20T09:51:15.008Z,88.2
2019-02-20T09:52:15.271Z,88.4
2019-02-20T09:53:14.536Z,88.3
2019-02-20T09:54:14.801Z,88.5
2019-02-20T09:55:15.074Z,88.6
2019-02-20T09:56:16.318Z,87.8
2019-02-20T09:57:14.688Z,87.6
2019-02-20T09:58:14.951Z,86.8
2019-02-20T09:59:15.225Z,87.0
2019-02-20T10:00:14.485Z,86.7
2019-02-20T10:01:14.550Z,86.5
2019-02-20T10:02:14.813Z,86.7
2019-02-20T10:03:15.092Z,86.9
2019-02-20T10:04:15.372Z,86.7
2019-02-20T10:05:14.645Z,86.2
2019-02-20T10:06:14.928Z,86.1
2019-02-20T10:07:15.202Z,85.8
2019-02-20T10:08:14.471Z,86.1
2019-02-20T10:09:16.411Z,85.3
2019-02-20T10:10:14.699Z,84.7
2019-02-20T10:11:14.749Z,83.5
2019-02-20T10:12:15.018Z,83.3
2019-02-20T10:13:15.301Z,83.3
2019-02-20T10:14:14.583Z,81.8
2019-02-20T10:15:14.892Z,80.5
2019-02-20T10:16:15.169Z,80.3
2019-02-20T10:17:14.445Z,80.0
2019-02-20T10:18:14.707Z,81.3
2019-02-20T10:19:14.980Z,81.6
2019-02-20T10:20:15.279Z,81.8
2019-02-20T10:21:17.321Z,82.5
2019-02-20T10:22:14.604Z,83.0
2019-02-20T10:23:14.869Z,83.0
2019-02-20T10:24:15.136Z,82.0
2019-02-20T10:25:14.434Z,80.9
2019-02-20T10:26:14.706Z,80.8
2019-02-20T10:27:14.982Z,81.2
2019-02-20T10:28:15.283Z,80.0
2019-02-20T10:29:14.559Z,81.6
2019-02-20T10:30:14.836Z,81.0
2019-02-20T10:31:14.880Z,80.2
2019-02-20T10:32:15.188Z,80.0
2019-02-20T10:33:14.441Z,79.0
2019-02-20T10:34:14.707Z,79.0
2019-02-20T10:35:14.979Z,78.7
2019-02-20T10:36:15.255Z,79.2
2019-02-20T10:37:14.530Z,79.1
2019-02-20T10:38:14.797Z,80.1
2019-02-20T10:39:15.073Z,80.9
2019-02-20T10:40:15.345Z,81.5
2019-02-20T10:41:14.420Z,80.0
2019-02-20T10:42:14.698Z,79.5
2019-02-20T10:43:14.956Z,80.4
2019-02-20T10:44:15.226Z,80.2
2019-02-20T10:45:14.504Z,79.5
2019-02-20T10:46:14.762Z,79.2
2019-02-20T10:47:15.032Z,79.3
2019-02-20T10:48:15.306Z,79.0
2019-02-20T10:49:14.576Z,79.5
2019-02-20T10:50:14.848Z,78.8
2019-02-20T10:51:14.890Z,78.7
2019-02-20T10:52:15.159Z,77.9
2019-02-20T10:53:14.432Z,77.5
2019-02-20T10:54:14.713Z,78.7
2019-02-20T10:55:14.981Z,79.3
2019-02-20T10:56:15.252Z,79.0
2019-02-20T10:57:14.527Z,78.2
2019-02-20T10:58:14.794Z,78.0
2019-02-20T10:59:15.066Z,77.7
2019-02-20T11:00:24.374Z,77.8
2019-02-20T11:01:14.415Z,77.5
2019-02-20T11:02:14.678Z,78.2
2019-02-20T11:03:14.947Z,79.8
2019-02-20T11:04:15.201Z,79.0
2019-02-20T11:05:14.487Z,78.8
2019-02-20T11:06:14.758Z,78.2
2019-02-20T11:07:15.026Z,77.6
2019-02-20T11:08:15.295Z,77.2
2019-02-20T11:09:14.556Z,77.6
2019-02-20T11:10:14.835Z,78.8
2019-02-20T11:11:14.888Z,79.3
2019-02-20T11:12:15.152Z,78.6
2019-02-20T11:13:14.419Z,78.5
2019-02-20T11:14:14.687Z,78.3
2019-02-20T11:15:14.963Z,77.5
2019-02-20T11:16:15.234Z,77.2
2019-02-20T11:17:14.520Z,76.6
2019-02-20T11:18:14.776Z,76.1
2019-02-20T11:19:15.796Z,75.9
2019-02-20T11:20:15.082Z,74.8
2019-02-20T11:21:15.132Z,75.7
2019-02-20T11:22:14.397Z,75.7
2019-02-20T11:23:14.656Z,75.9
2019-02-20T11:24:14.922Z,75.7
2019-02-20T11:25:15.190Z,76.0
2019-02-20T11:26:18.766Z,76.1
2019-02-20T11:27:15.084Z,75.2
2019-02-20T11:28:15.345Z,74.2
2019-02-20T11:29:14.609Z,73.8
2019-02-20T11:30:14.880Z,73.1
2019-02-20T11:31:14.927Z,72.3
2019-02-20T11:32:15.193Z,72.4
2019-02-20T11:33:14.460Z,72.9
2019-02-20T11:34:14.735Z,73.4
2019-02-20T11:35:15.025Z,73.4
2019-02-20T11:36:15.299Z,73.6
2019-02-20T11:37:14.560Z,73.6
2019-02-20T11:38:14.828Z,73.8
2019-02-20T11:39:15.104Z,74.0
2019-02-20T11:40:14.395Z,73.7
2019-02-20T11:41:14.461Z,73.5
2019-02-20T11:42:14.729Z,73.0
2019-02-20T11:43:15.000Z,73.8
2019-02-20T11:44:21.375Z,74.2
2019-02-20T11:45:14.671Z,73.5
2019-02-20T11:46:14.921Z,73.3
2019-02-20T11:47:15.177Z,73.6
2019-02-20T11:48:14.441Z,73.2
2019-02-20T11:49:14.708Z,73.0
2019-02-20T11:50:15.010Z,73.0
2019-02-20T11:51:15.022Z,73.3
2019-02-20T11:52:15.293Z,74.3
2019-02-20T11:53:14.560Z,75.5
2019-02-20T11:54:14.827Z,75.4
2019-02-20T11:55:15.098Z,75.0
2019-02-20T11:56:15.361Z,74.4
2019-02-20T11:57:14.616Z,74.4
2019-02-20T11:58:14.883Z,74.3
2019-02-20T11:59:15.155Z,74.1
2019-02-20T12:00:14.422Z,74.2
2019-02-20T12:01:14.481Z,73.1
2019-02-20T12:02:14.741Z,73.7
2019-02-20T12:03:15.012Z,74.5
2019-02-20T12:04:15.299Z,75.0
2019-02-20T12:05:14.566Z,74.4
2019-02-20T12:06:14.847Z,74.1
2019-02-20T12:07:15.119Z,74.3
2019-02-20T12:08:14.383Z,74.2
2019-02-20T12:09:14.648Z,74.2
2019-02-20T12:10:14.930Z,73.5
2019-02-20T12:11:14.986Z,74.1
2019-02-20T12:12:15.244Z,73.2
2019-02-20T12:13:14.569Z,73.5
2019-02-20T12:14:14.843Z,73.2
2019-02-20T12:15:15.120Z,72.5
2019-02-20T12:16:14.385Z,72.2
2019-02-20T12:17:14.647Z,71.7
2019-02-20T12:18:17.679Z,72.3
2019-02-20T12:19:14.998Z,72.0
2019-02-20T12:20:15.267Z,71.6
2019-02-20T12:21:15.332Z,71.6
2019-02-20T12:22:14.603Z,71.3
2019-02-20T12:23:14.890Z,71.5
2019-02-20T12:24:15.157Z,71.5
2019-02-20T12:25:14.421Z,71.0
2019-02-20T12:26:14.699Z,72.2
2019-02-20T12:27:14.957Z,72.1
2019-02-20T12:28:15.238Z,71.7
2019-02-20T12:29:14.850Z,71.4
2019-02-20T12:30:15.123Z,71.7
2019-02-20T12:31:15.155Z,71.9
2019-02-20T12:32:14.432Z,72.8
2019-02-20T12:33:14.689Z,71.4
2019-02-20T12:34:14.954Z,72.1
2019-02-20T12:35:15.247Z,72.2
2019-02-20T12:36:14.512Z,71.4
2019-02-20T12:37:14.778Z,71.3
2019-02-20T12:38:15.048Z,71.6
2019-02-20T12:39:15.299Z,71.6
2019-02-20T12:40:14.573Z,71.1
2019-02-20T12:41:14.618Z,71.2
2019-02-20T12:42:14.897Z,70.8
2019-02-20T12:43:15.421Z,70.8
2019-02-20T12:44:14.726Z,71.2
2019-02-20T12:45:15.021Z,71.0
2019-02-20T12:46:15.296Z,70.8
2019-02-20T12:47:14.568Z,70.7
2019-02-20T12:48:14.839Z,71.0
2019-02-20T12:49:15.105Z,70.3
2019-02-20T12:50:14.381Z,70.2
2019-02-20T12:51:14.417Z,70.7
2019-02-20T12:52:14.681Z,71.0
2019-02-20T12:53:14.955Z,70.8
2019-02-20T12:54:15.249Z,70.5
2019-02-20T12:55:14.509Z,70.4
2019-02-20T12:56:14.775Z,70.6
2019-02-20T12:57:15.032Z,69.6
2019-02-20T12:58:15.309Z,69.4
2019-02-20T12:59:14.594Z,69.0
2019-02-20T13:00:14.892Z,68.8
2019-02-20T13:01:14.924Z,69.7
2019-02-20T13:02:15.184Z,69.5
2019-02-20T13:03:14.446Z,69.6
2019-02-20T13:04:14.715Z,69.5
2019-02-20T13:05:14.986Z,69.5
2019-02-20T13:06:15.248Z,70.7
2019-02-20T13:07:14.509Z,71.0
2019-02-20T13:08:14.760Z,71.1
2019-02-20T13:09:15.009Z,71.4
2019-02-20T13:10:15.273Z,70.5
2019-02-20T13:11:15.315Z,70.5
2019-02-20T13:12:14.593Z,70.0
2019-02-20T13:13:14.863Z,70.3
2019-02-20T13:14:15.139Z,70.4
2019-02-20T13:15:14.403Z,70.0
2019-02-20T13:16:14.673Z,70.2
2019-02-20T13:17:14.942Z,69.9
2019-02-20T13:18:15.313Z,69.7